Home > Products > Valid Products > TAF

000
FTUS41 KPBZ 071456 AAA
TAFPIT
TAF AMD
KPIT 071456Z 0715/0818 19004KT P6SM SCT020 BKN035
      TEMPO 0715/0716 BKN020
     FM071600 21011KT P6SM BKN050
     FM080200 23008KT 4SM TSRA OVC035CB
     FM080600 26008KT 4SM BR OVC015=



000
FTUS41 KPBZ 071435 AAA
TAFDUJ
TAF AMD
KDUJ 071435Z 0715/0812 23007KT P6SM SCT015 BKN035
      TEMPO 0715/0716 BKN015
     FM071600 22012KT P6SM BKN050
     FM080100 23008KT 4SM TSRA OVC035CB=



000
FTUS41 KPBZ 071435 AAA
TAFDUJ
TAF AMD
KDUJ 071435Z 0715/0812 23007KT P6SM SCT015 BKN035
      TEMPO 0715/0716 BKN015
     FM071600 22012KT P6SM BKN050
     FM080100 23008KT 4SM TSRA OVC035CB=



000
FTUS41 KPBZ 071433 AAA
TAFZZV
TAF AMD
KZZV 071433Z 0715/0812 20008KT P6SM SCT015 BKN035
      TEMPO 0715/0716 5SM HZ BKN015
     FM071600 22012KT P6SM BKN050
     FM072300 23008KT 4SM TSRA OVC035CB=



000
FTUS41 KPBZ 071432 AAA
TAFMGW
TAF AMD
KMGW 071432Z 0715/0812 22012KT P6SM BKN050
     FM080300 23008KT 4SM TSRA OVC035CB=



000
FTUS41 KPBZ 071432 AAA
TAFHLG
TAF AMD
KHLG 071432Z 0715/0812 22012KT P6SM BKN050
     FM080000 23008KT 4SM TSRA OVC035CB=



000
FTUS41 KPBZ 071431 AAA
TAFBVI
TAF AMD
KBVI 071431Z 0715/0812 22012KT P6SM BKN050
      TEMPO 0715/0716 BKN015
     FM080200 23008KT 4SM TSRA OVC035CB=



000
FTUS41 KPBZ 071430 AAA
TAFAGC
TAF AMD
KAGC 071430Z 0715/0812 22012KT P6SM BKN050
     FM080200 23008KT 4SM TSRA OVC035CB=



000
FTUS41 KPBZ 071131
TAFLBE
TAF
KLBE 071131Z 0712/0812 VRB03KT P6SM SCT080
     FM071500 22012KT P6SM BKN050
     FM080300 23008KT 4SM TSRA OVC035CB=



000
FTUS41 KPBZ 071131
TAFAGC
TAF
KAGC 071131Z 0712/0812 18006KT 4SM BR BKN200
     FM071500 22012KT P6SM BKN050
     FM080200 23008KT 4SM TSRA OVC035CB=



000
FTUS41 KPBZ 071131
TAFHLG
TAF
KHLG 071131Z 0712/0812 19004KT 5SM BR SCT050
     FM071500 22012KT P6SM BKN050
     FM080000 23008KT 4SM TSRA OVC035CB=



000
FTUS41 KPBZ 071131
TAFBVI
TAF
KBVI 071131Z 0712/0812 18005KT 5SM BR SCT080
     FM071500 22012KT P6SM BKN050
     FM080200 23008KT 4SM TSRA OVC035CB=



000
FTUS41 KPBZ 071131
TAFMGW
TAF
KMGW 071131Z 0712/0812 21004KT 5SM BR SCT150
     FM071500 22012KT P6SM BKN050
     FM080300 23008KT 4SM TSRA OVC035CB=



000
FTUS41 KPBZ 071131
TAFAGC
TAF
KAGC 071131Z 0712/0812 18006KT 4SM BR BKN200
     FM071500 22012KT P6SM BKN050
     FM080200 23008KT 4SM TSRA OVC035CB=



000
FTUS41 KPBZ 071131
TAFHLG
TAF
KHLG 071131Z 0712/0812 19004KT 5SM BR SCT050
     FM071500 22012KT P6SM BKN050
     FM080000 23008KT 4SM TSRA OVC035CB=



000
FTUS41 KPBZ 071131
TAFPIT
TAF
KPIT 071131Z 0712/0818 17004KT 5SM BR SCT080 BKN200
     FM071300 19004KT P6SM BKN080
     FM080200 23008KT 4SM TSRA OVC035CB
     FM080600 26008KT 4SM BR OVC015=



000
FTUS41 KPBZ 071131
TAFLBE
TAF
KLBE 071131Z 0712/0812 VRB03KT P6SM SCT080
     FM071500 22012KT P6SM BKN050
     FM080300 23008KT 4SM TSRA OVC035CB=



000
FTUS41 KPBZ 071131
TAFMGW
TAF
KMGW 071131Z 0712/0812 21004KT 5SM BR SCT150
     FM071500 22012KT P6SM BKN050
     FM080300 23008KT 4SM TSRA OVC035CB=



000
FTUS41 KPBZ 071131
TAFZZV
TAF
KZZV 071131Z 0712/0812 VRB03KT 4SM BR SCT150
      TEMPO 0712/0713 2SM BR
     FM071400 22012KT P6SM BKN050
     FM072300 23008KT 4SM TSRA OVC035CB=



000
FTUS41 KPBZ 071131
TAFBVI
TAF
KBVI 071131Z 0712/0812 18005KT 5SM BR SCT080
     FM071500 22012KT P6SM BKN050
     FM080200 23008KT 4SM TSRA OVC035CB=



000
FTUS41 KPBZ 071131
TAFDUJ
TAF
KDUJ 071131Z 0712/0812 22006KT 4SM BR BKN007
     FM071400 22012KT P6SM BKN050
     FM080100 23008KT 4SM TSRA OVC035CB=



000
FTUS41 KPBZ 071038 AAA
TAFHLG
TAF AMD
KHLG 071038Z 0711/0806 19004KT 4SM BR SCT050
      TEMPO 0711/0713 2SM BR
     FM071500 22012KT P6SM BKN050
     FM080000 23008KT 4SM TSRA OVC035CB=



000
FTUS41 KPBZ 071025 AAB
TAFDUJ
TAF AMD
KDUJ 071025Z 0710/0806 19003KT 4SM BR OVC060
      TEMPO 0710/0713 2SM BR
     FM071400 22012KT P6SM BKN050
     FM080100 23008KT 4SM TSRA OVC035CB=



000
FTUS41 KPBZ 071010 AAB
TAFAGC
TAF AMD
KAGC 071010Z 0710/0806 18006KT 2SM BR BKN005
     FM071300 19005KT 4SM BR SCT010
     FM071500 22012KT P6SM BKN050
     FM080200 23008KT 4SM TSRA OVC035CB=



000
FTUS41 KPBZ 070858 AAB
TAFPIT
TAF AMD
KPIT 070858Z 0709/0812 19004KT P6SM BKN080
     FM080200 23008KT 4SM TSRA OVC035CB
     FM080600 26008KT 4SM BR OVC015=



000
FTUS41 KPBZ 070802 AAA
TAFAGC
TAF AMD
KAGC 070802Z 0708/0806 19006KT P6SM BKN035
     FM071500 22012KT P6SM BKN050
     FM080200 23008KT 4SM TSRA OVC035CB=



000
FTUS41 KPBZ 070802 AAA
TAFPIT
TAF AMD
KPIT 070802Z 0708/0812 21010KT P6SM BKN060
     FM080200 23008KT 4SM TSRA OVC035CB
     FM080600 26008KT 4SM BR OVC015=



000
FTUS41 KPBZ 070643 AAA
TAFDUJ
TAF AMD
KDUJ 070643Z 0707/0806 22006KT P6SM OVC003
     FM071400 22012KT P6SM BKN050
     FM080100 23008KT 4SM TSRA OVC035CB=



000
FTUS41 KPBZ 070643 AAA
TAFDUJ
TAF AMD
KDUJ 070643Z 0707/0806 22006KT P6SM OVC003
     FM071400 22012KT P6SM BKN050
     FM080100 23008KT 4SM TSRA OVC035CB=



000
FTUS41 KPBZ 070525
TAFHLG
TAF
KHLG 070525Z 0706/0806 19004KT 5SM BR SCT150
     FM071500 22012KT P6SM BKN050
     FM080000 23008KT 4SM TSRA OVC035CB=



000
FTUS41 KPBZ 070525
TAFPIT
TAF
KPIT 070525Z 0706/0812 19004KT 5SM BR SCT150
     FM071500 22012KT P6SM BKN050
     FM080200 23008KT 4SM TSRA OVC035CB
     FM080600 26008KT 4SM BR OVC015=



000
FTUS41 KPBZ 070525
TAFDUJ
TAF
KDUJ 070525Z 0706/0806 15005KT 5SM BR SCT150
     FM071400 22012KT P6SM BKN050
     FM080100 23008KT 4SM TSRA OVC035CB=



000
FTUS41 KPBZ 070525
TAFAGC
TAF
KAGC 070525Z 0706/0806 18005KT 5SM BR SCT150
     FM071500 22012KT P6SM BKN050
     FM080200 23008KT 4SM TSRA OVC035CB=



000
FTUS41 KPBZ 070525
TAFMGW
TAF
KMGW 070525Z 0706/0806 21004KT 5SM BR SCT150
     FM071500 22012KT P6SM BKN050
     FM080300 23008KT 4SM TSRA OVC035CB=



000
FTUS41 KPBZ 070525
TAFZZV
TAF
KZZV 070525Z 0706/0806 VRB03KT 4SM BR SCT150
      TEMPO 0708/0712 2SM BR
     FM071400 22012KT P6SM BKN050
     FM072300 23008KT 4SM TSRA OVC035CB=



000
FTUS41 KPBZ 070525
TAFLBE
TAF
KLBE 070525Z 0706/0806 VRB03KT 5SM BR SCT150
     FM071500 22012KT P6SM BKN050
     FM080300 23008KT 4SM TSRA OVC035CB
      AMD NOT SKED=



000
FTUS41 KPBZ 070525
TAFBVI
TAF
KBVI 070525Z 0706/0806 VRB03KT 5SM BR SCT150
     FM071500 22012KT P6SM BKN050
     FM080200 23008KT 4SM TSRA OVC035CB
      AMD NOT SKED=



000
FTUS41 KPBZ 070259 AAB
TAFPIT
TAF AMD
KPIT 070259Z 0703/0806 VRB03KT P6SM SCT100
     FM070900 VRB03KT 5SM BR SCT150
     FM071500 22011G18KT P6SM BKN035
     FM072200 23008KT P6SM VCTS BKN035CB
     FM080000 23008KT 4SM TSRA OVC035CB=



000
FTUS41 KPBZ 070220 AAA
TAFPIT
TAF AMD
KPIT 070220Z 0702/0806 VRB03KT P6SM SCT100
     FM070900 VRB03KT 5SM BR SCT150
     FM071500 22011G18KT P6SM BKN035
     FM072200 23008KT P6SM VCTS BKN035CB
     FM080000 23008KT 4SM TSRA OVC035CB=



000
FTUS41 KPBZ 070030 AAA
TAFMGW
TAF AMD
KMGW 070030Z 0701/0724 VRB03KT P6SM VCTS SCT035CB SCT100
     FM070200 VRB03KT P6SM SCT100
     FM070900 VRB03KT 5SM BR SCT150
     FM071500 22011G18KT P6SM BKN035=



000
FTUS41 KPBZ 070030 AAA
TAFMGW
TAF AMD
KMGW 070030Z 0701/0724 VRB03KT P6SM VCTS SCT035CB SCT100
     FM070200 VRB03KT P6SM SCT100
     FM070900 VRB03KT 5SM BR SCT150
     FM071500 22011G18KT P6SM BKN035=



000
FTUS41 KPBZ 062320
TAFDUJ
TAF
KDUJ 062320Z 0700/0724 13006KT P6SM SCT035
     FM070200 VRB03KT P6SM SCT100
     FM070900 VRB03KT 5SM BR SCT150
     FM071500 22011G18KT P6SM BKN035=



000
FTUS41 KPBZ 062320
TAFHLG
TAF
KHLG 062320Z 0700/0724 VRB03KT P6SM VCSH SCT030 SCT100
     FM070200 VRB03KT P6SM SCT100
     FM070900 VRB03KT 5SM BR SCT150
     FM071500 22011G18KT P6SM BKN035
     FM072100 23008KT P6SM VCTS BKN035CB=



000
FTUS41 KPBZ 062320
TAFZZV
TAF
KZZV 062320Z 0700/0724 VRB03KT P6SM SCT035
     FM070900 VRB03KT 5SM BR SCT150
     FM071500 22011G18KT P6SM BKN035
     FM072100 23008KT P6SM VCTS BKN035CB=



000
FTUS41 KPBZ 062320
TAFMGW
TAF
KMGW 062320Z 0700/0724 VRB03KT P6SM VCSH SCT035 SCT100
     FM070300 VRB03KT P6SM SCT100
     FM070900 VRB03KT 5SM BR SCT150
     FM071500 22011G18KT P6SM BKN035=



000
FTUS41 KPBZ 062320
TAFLBE
TAF
KLBE 062320Z 0700/0724 VRB03KT P6SM SCT035 SCT100
     FM070200 VRB03KT P6SM SCT100
     FM070900 VRB03KT 5SM BR SCT150
     FM071500 22011G18KT P6SM BKN035=



000
FTUS41 KPBZ 062320
TAFAGC
TAF
KAGC 062320Z 0700/0724 VRB04KT P6SM VCTS SCT035CB SCT100
     FM070200 VRB03KT P6SM SCT100
     FM070900 VRB03KT 5SM BR SCT150
     FM071500 22011G18KT P6SM BKN035
     FM072200 23008KT P6SM VCTS BKN035CB=



000
FTUS41 KPBZ 062320
TAFBVI
TAF
KBVI 062320Z 0700/0724 VRB03KT P6SM SCT030 SCT100
     FM070200 VRB03KT P6SM SCT100
     FM070900 VRB03KT 5SM BR SCT150
     FM071500 22011G18KT P6SM BKN035
     FM072200 23008KT P6SM VCTS BKN035CB=



000
FTUS41 KPBZ 062320
TAFPIT
TAF
KPIT 062320Z 0700/0806 VRB03KT P6SM VCTS SCT035CB SCT100
     FM070200 VRB03KT P6SM SCT100
     FM070900 VRB03KT 5SM BR SCT150
     FM071500 22011G18KT P6SM BKN035
     FM072200 23008KT P6SM VCTS BKN035CB
     FM080000 23008KT 4SM TSRA OVC035CB=



000
FTUS41 KPBZ 062218 AAB
TAFBVI
TAF AMD
KBVI 062218Z 0622/0718 05004KT P6SM VCSH SCT025 BKN035
     FM071100 21005KT 4SM BR SCT150
     FM071300 21007G15KT P6SM SCT150=



000
FTUS41 KPBZ 062100 AAB
TAFDUJ
TAF AMD
KDUJ 062100Z 0621/0718 10005KT P6SM SCT025 SCT100
     FM070800 VRB03KT 5SM BR BKN050
     FM071500 22011G18KT P6SM BKN050=



000
FTUS41 KPBZ 062057 AAC
TAFPIT
TAF AMD
KPIT 062057Z 0621/0724 23006KT P6SM SCT035 SCT150
     FM072000 22011G18KT P6SM BKN050=



000
FTUS41 KPBZ 062057 AAC
TAFPIT
TAF AMD
KPIT 062057Z 0621/0724 23006KT P6SM SCT035 SCT150
     FM072000 22011G18KT P6SM BKN050=



000
FTUS41 KPBZ 062010 AAB
TAFAGC
TAF AMD
KAGC 062010Z 0620/0718 12005KT P6SM SCT035 SCT100
     FM070100 VRB03KT P6SM BKN050=



000
FTUS41 KPBZ 062009 AAB
TAFPIT
TAF AMD
KPIT 062009Z 0620/0724 23006KT P6SM SCT035 SCT100
     FM070100 21005KT P6SM BKN050
     FM071900 21010G16KT P6SM BKN050 PROB30 0721/0724 P6SM -TSRA
      BKN040CB=



000
FTUS41 KPBZ 062004 AAB
TAFMGW
TAF AMD
KMGW 062004Z 0620/0718 19006KT P6SM VCSH BKN040
      TEMPO 0620/0622 2SM SHRA SCT025 BKN035
     FM070700 00000KT P6SM SCT050=



000
FTUS41 KPBZ 062004 AAB
TAFMGW
TAF AMD
KMGW 062004Z 0620/0718 19006KT P6SM VCSH BKN040
      TEMPO 0620/0622 2SM SHRA SCT025 BKN035
     FM070700 00000KT P6SM SCT050=



000
FTUS41 KPBZ 062002 AAB
TAFZZV
TAF AMD
KZZV 062002Z 0620/0718 19006KT P6SM SCT050
     FM070800 00000KT 5SM BR SKC
     FM071200 20007KT P6SM SKC
     FM071700 21011G18KT 4SM HZ BKN050=



000
FTUS41 KPBZ 061859 AAA
TAFDUJ
TAF AMD
KDUJ 061859Z 0619/0718 13004KT P6SM VCTS SCT035CB BKN050
      TEMPO 0619/0622 4SM -TSRA BKN035CB
     FM070100 21005KT P6SM BKN050=



000
FTUS41 KPBZ 061856 AAA
TAFZZV
TAF AMD
KZZV 061856Z 0619/0718 19006KT P6SM VCSH BKN035
      TEMPO 0619/0623 6SM -SHRA SCT020 BKN030
     FM070100 20005KT P6SM BKN050=



000
FTUS41 KPBZ 061855 AAA
TAFMGW
TAF AMD
KMGW 061855Z 0619/0718 19006KT P6SM VCSH BKN050
      TEMPO 0619/0623 6SM -SHRA BKN035
     FM070100 21005KT P6SM BKN050=



000
FTUS41 KPBZ 061855 AAA
TAFMGW
TAF AMD
KMGW 061855Z 0619/0718 19006KT P6SM VCSH BKN050
      TEMPO 0619/0623 6SM -SHRA BKN035
     FM070100 21005KT P6SM BKN050=



000
FTUS41 KPBZ 061850 AAA
TAFHLG
TAF AMD
KHLG 061850Z 0619/0718 24003KT P6SM VCSH BKN050
      TEMPO 0619/0623 6SM -SHRA BKN035
     FM070100 21005KT P6SM BKN050=



000
FTUS41 KPBZ 061849 AAA
TAFLBE
TAF AMD
KLBE 061849Z 0619/0718 VRB04KT P6SM VCTS SCT030CB BKN050
      TEMPO 0619/0623 4SM -TSRA BKN030CB
     FM062300 19006KT P6SM VCSH BKN030
     FM070100 21005KT P6SM BKN040=



000
FTUS41 KPBZ 061849 AAA
TAFLBE
TAF AMD
KLBE 061849Z 0619/0718 VRB04KT P6SM VCTS SCT030CB BKN050
      TEMPO 0619/0623 4SM -TSRA BKN030CB
     FM062300 19006KT P6SM VCSH BKN030
     FM070100 21005KT P6SM BKN040=



000
FTUS41 KPBZ 061845 AAA
TAFAGC
TAF AMD
KAGC 061845Z 0619/0718 16006KT P6SM VCSH BKN035
      TEMPO 0619/0623 6SM -SHRA SCT020 BKN030
     FM070100 21005KT P6SM BKN050=



000
FTUS41 KPBZ 061845 AAA
TAFPIT
TAF AMD
KPIT 061845Z 0619/0724 23006KT P6SM VCSH BKN035
      TEMPO 0619/0623 6SM -SHRA SCT020 BKN030
     FM070100 21005KT P6SM BKN050
     FM071900 21010G16KT P6SM BKN050 PROB30 0721/0724 P6SM -TSRA
      BKN040CB=



000
FTUS41 KPBZ 061845 AAA
TAFBVI
TAF AMD
KBVI 061845Z 0619/0718 05004KT P6SM VCSH BKN035
      TEMPO 0619/0623 6SM -SHRA SCT020 BKN030
     FM070100 21005KT P6SM BKN050=



000
FTUS41 KPBZ 061739
TAFPIT
TAF
KPIT 061739Z 0618/0724 31005KT P6SM -SHRA SCT030 BKN050
      TEMPO 0618/0619 4SM -TSRA BKN030CB
     FM070100 21005KT P6SM BKN040=



000
FTUS41 KPBZ 061739
TAFLBE
TAF
KLBE 061739Z 0618/0718 VRB04KT P6SM -SHRA SCT030 BKN050
      TEMPO 0618/0619 4SM -TSRA BKN030CB
     FM062200 19006KT P6SM VCSH BKN030
     FM070100 21005KT P6SM BKN040=



000
FTUS41 KPBZ 061739
TAFAGC
TAF
KAGC 061739Z 0618/0718 VRB04KT P6SM VCSH SCT025 BKN035
      TEMPO 0618/0619 4SM -TSRA BKN030CB
     FM070000 21005KT P6SM BKN040=



000
FTUS41 KPBZ 061739
TAFBVI
TAF
KBVI 061739Z 0618/0718 19006KT P6SM VCSH BKN050
     FM062300 21005KT P6SM BKN040=



000
FTUS41 KPBZ 061739
TAFHLG
TAF
KHLG 061739Z 0618/0718 19006KT 4SM -SHRA BKN025
     FM062200 21005KT P6SM BKN040=



000
FTUS41 KPBZ 061739
TAFDUJ
TAF
KDUJ 061739Z 0618/0718 13004KT P6SM -SHRA BKN040
     FM070100 21005KT P6SM BKN040=



000
FTUS41 KPBZ 061739
TAFZZV
TAF
KZZV 061739Z 0618/0718 19006KT 4SM -SHRA BKN025
     FM062200 21005KT P6SM BKN040=



000
FTUS41 KPBZ 061739
TAFMGW
TAF
KMGW 061739Z 0618/0718 19006KT P6SM -SHRA BKN035
     FM070100 21005KT P6SM BKN040=



000
FTUS41 KPBZ 061704 AAA
TAFAGC
TAF AMD
KAGC 061704Z 0617/0712 22004KT 3SM SHRA SCT015 BKN024
     FM061730 VRB04KT P6SM VCSH SCT025 BKN035
      TEMPO 0618/0619 4SM -TSRA BKN030CB
     FM070000 21005KT P6SM BKN040=



000
FTUS41 KPBZ 061704 AAA
TAFAGC
TAF AMD
KAGC 061704Z 0617/0712 22004KT 3SM SHRA SCT015 BKN024
     FM061730 VRB04KT P6SM VCSH SCT025 BKN035
      TEMPO 0618/0619 4SM -TSRA BKN030CB
     FM070000 21005KT P6SM BKN040=



000
FTUS41 KPBZ 061702 AAA
TAFLBE
TAF AMD
KLBE 061702Z 0617/0712 VRB04KT P6SM -SHRA SCT030 BKN050
      TEMPO 0617/0619 4SM -TSRA BKN030CB
     FM062200 19006KT P6SM VCSH BKN030
     FM070100 21005KT P6SM BKN040=



000
FTUS41 KPBZ 061700 AAB
TAFPIT
TAF AMD
KPIT 061700Z 0617/0718 31005KT P6SM -SHRA SCT030 BKN050
      TEMPO 0617/0619 4SM -TSRA BKN030CB
     FM070100 21005KT P6SM BKN040=



000
FTUS41 KPBZ 061700 AAB
TAFPIT
TAF AMD
KPIT 061700Z 0617/0718 31005KT P6SM -SHRA SCT030 BKN050
      TEMPO 0617/0619 4SM -TSRA BKN030CB
     FM070100 21005KT P6SM BKN040=



000
FTUS41 KPBZ 061452 AAA
TAFPIT
TAF AMD
KPIT 061452Z 0615/0718 11007KT P6SM BKN070
     FM061700 19006KT P6SM VCSH BKN050
      TEMPO 0617/0621 4SM -SHRA BR BKN025
     FM062300 21005KT P6SM BKN040=



000
FTUS41 KPBZ 061452 AAA
TAFPIT
TAF AMD
KPIT 061452Z 0615/0718 11007KT P6SM BKN070
     FM061700 19006KT P6SM VCSH BKN050
      TEMPO 0617/0621 4SM -SHRA BR BKN025
     FM062300 21005KT P6SM BKN040=



000
FTUS41 KPBZ 061138
TAFDUJ
TAF
KDUJ 061138Z 0612/0712 07003KT P6SM BKN050
     FM061700 13004KT P6SM -SHRA BKN040
     FM070100 21005KT P6SM BKN040=



000
FTUS41 KPBZ 061138
TAFZZV
TAF
KZZV 061138Z 0612/0712 09003KT P6SM BKN050
     FM061400 13004KT P6SM -SHRA BKN040
     FM061700 19006KT 4SM -SHRA BKN025
     FM062200 21005KT P6SM BKN040=



000
FTUS41 KPBZ 061138
TAFPIT
TAF
KPIT 061138Z 0612/0718 12006KT P6SM BKN100
     FM061700 19006KT P6SM VCSH BKN050
     FM062300 21005KT P6SM BKN040=



000
FTUS41 KPBZ 061138
TAFMGW
TAF
KMGW 061138Z 0612/0712 00000KT P6SM BKN100
     FM061700 19006KT P6SM -SHRA BKN035
     FM070100 21005KT P6SM BKN040=



000
FTUS41 KPBZ 061138
TAFHLG
TAF
KHLG 061138Z 0612/0712 00000KT P6SM BKN100
     FM061800 19006KT 4SM -SHRA BKN025
     FM062200 21005KT P6SM BKN040=



000
FTUS41 KPBZ 061138
TAFAGC
TAF
KAGC 061138Z 0612/0712 11004KT P6SM BKN100
     FM061700 19006KT P6SM VCSH BKN050
     FM070000 21005KT P6SM BKN040=



000
FTUS41 KPBZ 061138
TAFLBE
TAF
KLBE 061138Z 0612/0712 VRB04KT P6SM BKN100
     FM061800 19006KT 4SM -SHRA BKN025
     FM070100 21005KT P6SM BKN040=



000
FTUS41 KPBZ 061138
TAFBVI
TAF
KBVI 061138Z 0612/0712 VRB04KT P6SM BKN100
     FM061800 19006KT P6SM VCSH BKN050
     FM062300 21005KT P6SM BKN040=



000
FTUS41 KPBZ 061138
TAFZZV
TAF
KZZV 061138Z 0612/0712 09003KT P6SM BKN050
     FM061400 13004KT P6SM -SHRA BKN040
     FM061700 19006KT 4SM -SHRA BKN025
     FM062200 21005KT P6SM BKN040=



000
FTUS41 KPBZ 061138
TAFLBE
TAF
KLBE 061138Z 0612/0712 VRB04KT P6SM BKN100
     FM061800 19006KT 4SM -SHRA BKN025
     FM070100 21005KT P6SM BKN040=



000
FTUS41 KPBZ 061138
TAFMGW
TAF
KMGW 061138Z 0612/0712 00000KT P6SM BKN100
     FM061700 19006KT P6SM -SHRA BKN035
     FM070100 21005KT P6SM BKN040=



000
FTUS41 KPBZ 061138
TAFHLG
TAF
KHLG 061138Z 0612/0712 00000KT P6SM BKN100
     FM061800 19006KT 4SM -SHRA BKN025
     FM062200 21005KT P6SM BKN040=



000
FTUS41 KPBZ 061138
TAFDUJ
TAF
KDUJ 061138Z 0612/0712 07003KT P6SM BKN050
     FM061700 13004KT P6SM -SHRA BKN040
     FM070100 21005KT P6SM BKN040=



000
FTUS41 KPBZ 061138
TAFPIT
TAF
KPIT 061138Z 0612/0718 12006KT P6SM BKN100
     FM061700 19006KT P6SM VCSH BKN050
     FM062300 21005KT P6SM BKN040=



000
FTUS41 KPBZ 061138
TAFAGC
TAF
KAGC 061138Z 0612/0712 11004KT P6SM BKN100
     FM061700 19006KT P6SM VCSH BKN050
     FM070000 21005KT P6SM BKN040=



000
FTUS41 KPBZ 061138
TAFBVI
TAF
KBVI 061138Z 0612/0712 VRB04KT P6SM BKN100
     FM061800 19006KT P6SM VCSH BKN050
     FM062300 21005KT P6SM BKN040=



000
FTUS41 KPBZ 060916 AAA
TAFDUJ
TAF AMD
KDUJ 060916Z 0609/0706 10006KT P6SM BKN100
     FM061600 13004KT P6SM -SHRA BKN040
     FM061900 19006KT 4SM -SHRA BKN035
     FM070100 21005KT P6SM BKN040=



000
FTUS41 KPBZ 060915 AAA
TAFHLG
TAF AMD
KHLG 060915Z 0609/0706 10005KT P6SM OVC120
     FM061400 13004KT P6SM -SHRA BKN040
     FM061600 19006KT 4SM -SHRA BKN025
     FM062200 21005KT P6SM BKN040=



000
FTUS41 KPBZ 060915 AAA
TAFHLG
TAF AMD
KHLG 060915Z 0609/0706 10005KT P6SM OVC120
     FM061400 13004KT P6SM -SHRA BKN040
     FM061600 19006KT 4SM -SHRA BKN025
     FM062200 21005KT P6SM BKN040=



000
FTUS41 KPBZ 060857 AAA
TAFPIT
TAF AMD
KPIT 060857Z 0609/0712 12006KT P6SM OVC150
     FM061300 13004KT P6SM -SHRA BKN060
     FM061700 19006KT 4SM -SHRA BKN025
     FM062300 21005KT P6SM BKN040=



000
FTUS41 KPBZ 060857 AAA
TAFPIT
TAF AMD
KPIT 060857Z 0609/0712 12006KT P6SM OVC150
     FM061300 13004KT P6SM -SHRA BKN060
     FM061700 19006KT 4SM -SHRA BKN025
     FM062300 21005KT P6SM BKN040=



000
FTUS41 KPBZ 060523
TAFHLG
TAF
KHLG 060523Z 0606/0706 09004KT P6SM SCT090
      TEMPO 0608/0612 4SM BR
     FM061200 13004KT P6SM -SHRA BKN040
     FM061600 19006KT 4SM -SHRA BKN025
     FM062200 21005KT P6SM BKN040=



000
FTUS41 KPBZ 060523
TAFAGC
TAF
KAGC 060523Z 0606/0706 13005KT P6SM BKN060
     FM061300 13004KT P6SM -SHRA BKN040
     FM061700 19006KT 4SM -SHRA BKN025
     FM070000 21005KT P6SM BKN040=



000
FTUS41 KPBZ 060523
TAFDUJ
TAF
KDUJ 060523Z 0606/0706 10007KT P6SM SKC
     FM060800 VRB03KT 4SM BR BKN100
     FM061400 13004KT P6SM -SHRA BKN040
     FM061900 19006KT 4SM -SHRA BKN035
     FM070100 21005KT P6SM BKN040=



000
FTUS41 KPBZ 060523
TAFBVI
TAF
KBVI 060523Z 0606/0706 12006KT P6SM OVC150
     FM061400 13004KT P6SM -SHRA BKN040
     FM061800 19006KT 4SM -SHRA BKN025
     FM062300 21005KT P6SM BKN040
      AMD NOT SKED=



000
FTUS41 KPBZ 060523
TAFMGW
TAF
KMGW 060523Z 0606/0706 VRB03KT P6SM -RA BKN060
     FM061100 13004KT P6SM -SHRA BKN040
     FM061700 19006KT 4SM -SHRA BKN025
     FM070100 21005KT P6SM BKN040=



000
FTUS41 KPBZ 060523
TAFPIT
TAF
KPIT 060523Z 0606/0712 12006KT P6SM OVC150
     FM061300 13004KT P6SM -SHRA BKN040
     FM061700 19006KT 4SM -SHRA BKN025
     FM062300 21005KT P6SM BKN040=



000
FTUS41 KPBZ 060523
TAFLBE
TAF
KLBE 060523Z 0606/0706 13005KT P6SM BKN060
     FM061300 13004KT P6SM -SHRA BKN040
     FM061700 19006KT 4SM -SHRA BKN025
     FM070100 21005KT P6SM BKN040
      AMD NOT SKED=



000
FTUS41 KPBZ 060523
TAFZZV
TAF
KZZV 060523Z 0606/0706 VRB03KT P6SM BKN060
      TEMPO 0608/0612 4SM BR
     FM061400 13004KT P6SM -SHRA BKN040
     FM061700 19006KT 4SM -SHRA BKN025
     FM062200 21005KT P6SM BKN040=



000
FTUS41 KPBZ 060236 AAA
TAFPIT
TAF AMD
KPIT 060236Z 0603/0706 05006KT P6SM FEW050 OVC200
     FM061500 13004KT P6SM VCSH BKN040
     FM061800 19006KT 6SM -SHRA VCTS BKN035CB OVC050=



000
FTUS41 KPBZ 052320
TAFDUJ
TAF
KDUJ 052320Z 0600/0624 12003KT P6SM BKN250
     FM060800 VRB03KT 4SM BR VCSH BKN150
      TEMPO 0609/0612 2SM BR
     FM061400 13006KT 6SM -SHRA VCTS BKN030CB OVC050=



000
FTUS41 KPBZ 052320
TAFMGW
TAF
KMGW 052320Z 0600/0624 01004KT P6SM VCSH BKN045
     FM061100 14004KT 6SM -SHRA BKN030
     FM061300 18005KT 5SM -SHRA VCTS BKN020CB OVC040=



000
FTUS41 KPBZ 052320
TAFBVI
TAF
KBVI 052320Z 0600/0624 08005KT P6SM FEW040 BKN250
     FM061500 13004KT P6SM VCSH BKN040
     FM061800 19006KT 6SM -SHRA VCTS BKN035CB OVC050
      AMD NOT SKED=



000
FTUS41 KPBZ 052320
TAFZZV
TAF
KZZV 052320Z 0600/0624 35004KT P6SM BKN250
     FM060600 00000KT 4SM BR SCT060 BKN150
      TEMPO 0609/0613 2SM BR
     FM061600 VRB04KT 6SM BR VCSH BKN040=



000
FTUS41 KPBZ 052320
TAFPIT
TAF
KPIT 052320Z 0600/0706 04008KT P6SM FEW060 FEW150 BKN250
     FM061500 13004KT P6SM VCSH BKN040
     FM061800 19006KT 6SM -SHRA VCTS BKN035CB OVC050=



000
FTUS41 KPBZ 052320
TAFHLG
TAF
KHLG 052320Z 0600/0624 06006KT P6SM FEW060 FEW150 BKN250
      TEMPO 0608/0612 4SM BR
     FM061200 13005KT P6SM VCSH BKN050
     FM061800 19006KT 6SM -SHRA VCTS BKN040CB=



000
FTUS41 KPBZ 052320
TAFAGC
TAF
KAGC 052320Z 0600/0624 06003KT P6SM FEW060 FEW150 BKN250
     FM061500 13004KT P6SM VCSH BKN040
     FM061800 19006KT 6SM -SHRA VCTS BKN035CB OVC050=



000
FTUS41 KPBZ 052320
TAFLBE
TAF
KLBE 052320Z 0600/0624 05006KT P6SM FEW050 BKN200
     FM061000 13005KT P6SM VCSH BKN050
     FM061400 16004KT 6SM -SHRA VCTS BKN035CB OVC050=



000
FTUS41 KPBZ 052054 AAA
TAFPIT
TAF AMD
KPIT 052054Z 0521/0624 09005KT P6SM FEW050 OVC250
      TEMPO 0608/0612 4SM BR
     FM061200 13004KT P6SM VCSH BKN050
     FM061800 19006KT 6SM -SHRA VCTS BKN035CB OVC050=



000
FTUS41 KPBZ 051937 AAA
TAFMGW
TAF AMD
KMGW 051937Z 0520/0618 VRB04KT P6SM FEW050 BKN250
     FM052100 17008KT P6SM -SHRA SCT040 BKN050
     FM060000 12005KT P6SM VCSH BKN060
     FM061100 14004KT 6SM -SHRA BKN030
     FM061600 18005KT 6SM -SHRA VCTS BKN025CB OVC040=



000
FTUS41 KPBZ 051729
TAFDUJ
TAF
KDUJ 051729Z 0518/0618 VRB04KT P6SM BKN250
     FM060800 VRB03KT 4SM BR VCSH BKN150
      TEMPO 0609/0612 2SM BR
     FM061400 13006KT 6SM -SHRA VCTS BKN035CB OVC050=



000
FTUS41 KPBZ 051729
TAFBVI
TAF
KBVI 051729Z 0518/0618 08005KT P6SM FEW040 BKN250
      TEMPO 0608/0612 4SM BR
     FM061200 13004KT P6SM VCSH BKN050
      AMD NOT SKED=



000
FTUS41 KPBZ 051729
TAFMGW
TAF
KMGW 051729Z 0518/0618 VRB04KT P6SM BKN250
     FM060000 12005KT P6SM VCSH BKN060
     FM061100 14004KT 6SM -SHRA BKN030
     FM061600 18005KT 6SM -SHRA VCTS BKN025CB OVC040=



000
FTUS41 KPBZ 051729
TAFLBE
TAF
KLBE 051729Z 0518/0618 VRB04KT P6SM SCT040 BKN250
     FM060500 00000KT 4SM BR BKN150
     FM060900 13005KT P6SM VCSH BKN050
     FM061400 16004KT 6SM -SHRA VCTS BKN035CB OVC050=



000
FTUS41 KPBZ 051729
TAFAGC
TAF
KAGC 051729Z 0518/0618 08005KT P6SM FEW040 BKN250
      TEMPO 0608/0612 4SM BR
     FM061200 13004KT P6SM VCSH BKN050
     FM061700 19006KT 6SM -SHRA VCTS BKN035CB OVC050=



000
FTUS41 KPBZ 051729
TAFZZV
TAF
KZZV 051729Z 0518/0618 VRB04KT P6SM BKN250
     FM060600 00000KT 4SM BR BKN150
      TEMPO 0608/0612 2SM BR
     FM061200 11004KT 6SM BR VCSH BKN050=



000
FTUS41 KPBZ 051729
TAFPIT
TAF
KPIT 051729Z 0518/0624 08005KT P6SM FEW040 BKN250
      TEMPO 0608/0612 4SM BR
     FM061200 13004KT P6SM VCSH BKN050
     FM061800 19006KT 6SM -SHRA VCTS BKN035CB OVC050=



000
FTUS41 KPBZ 051729
TAFHLG
TAF
KHLG 051729Z 0518/0618 09005KT P6SM FEW040 BKN250
      TEMPO 0608/0612 4SM BR
     FM061200 13005KT P6SM VCSH BKN050=



000
FTUS41 KPBZ 051455 AAA
TAFPIT
TAF AMD
KPIT 051455Z 0515/0618 VRB03KT P6SM BKN250
     FM061000 13005KT P6SM VCSH BKN060=



000
FTUS41 KPBZ 051134
TAFMGW
TAF
KMGW 051134Z 0512/0612 00000KT 3SM BR BKN250
     FM051300 VRB03KT P6SM BKN250
     FM060000 12005KT P6SM VCSH BKN060=



000
FTUS41 KPBZ 051134
TAFDUJ
TAF
KDUJ 051134Z 0512/0612 VRB03KT P6SM BKN250=



000
FTUS41 KPBZ 051134
TAFAGC
TAF
KAGC 051134Z 0512/0612 VRB03KT 5SM BR BKN250
     FM051300 VRB03KT P6SM BKN250
     FM061000 13005KT P6SM VCSH BKN060=



000
FTUS41 KPBZ 051134
TAFBVI
TAF
KBVI 051134Z 0512/0612 VRB03KT P6SM BKN250
     FM061000 13005KT P6SM VCSH BKN060
      AMD NOT SKED=



000
FTUS41 KPBZ 051134
TAFZZV
TAF
KZZV 051134Z 0512/0612 VRB03KT P6SM BKN250
     FM060800 12005KT P6SM VCSH BKN060=



000
FTUS41 KPBZ 051134
TAFPIT
TAF
KPIT 051134Z 0512/0618 VRB03KT P6SM BKN250
     FM061000 13005KT P6SM VCSH BKN060=



000
FTUS41 KPBZ 051134
TAFHLG
TAF
KHLG 051134Z 0512/0612 VRB03KT P6SM BKN250
     FM061000 13005KT P6SM VCSH BKN060=



000
FTUS41 KPBZ 051134
TAFLBE
TAF
KLBE 051134Z 0512/0612 VRB03KT P6SM BKN250
      TEMPO 0512/0513 3SM BR
     FM060900 13005KT P6SM VCSH BKN060=



000
FTUS41 KPBZ 051134
TAFAGC
TAF
KAGC 051134Z 0512/0612 VRB03KT 5SM BR BKN250
     FM051300 VRB03KT P6SM BKN250
     FM061000 13005KT P6SM VCSH BKN060=



000
FTUS41 KPBZ 051134
TAFPIT
TAF
KPIT 051134Z 0512/0618 VRB03KT P6SM BKN250
     FM061000 13005KT P6SM VCSH BKN060=



000
FTUS41 KPBZ 051134
TAFZZV
TAF
KZZV 051134Z 0512/0612 VRB03KT P6SM BKN250
     FM060800 12005KT P6SM VCSH BKN060=



000
FTUS41 KPBZ 051134
TAFMGW
TAF
KMGW 051134Z 0512/0612 00000KT 3SM BR BKN250
     FM051300 VRB03KT P6SM BKN250
     FM060000 12005KT P6SM VCSH BKN060=



000
FTUS41 KPBZ 051134
TAFDUJ
TAF
KDUJ 051134Z 0512/0612 VRB03KT P6SM BKN250=



000
FTUS41 KPBZ 051134
TAFHLG
TAF
KHLG 051134Z 0512/0612 VRB03KT P6SM BKN250
     FM061000 13005KT P6SM VCSH BKN060=



000
FTUS41 KPBZ 051134
TAFLBE
TAF
KLBE 051134Z 0512/0612 VRB03KT P6SM BKN250
      TEMPO 0512/0513 3SM BR
     FM060900 13005KT P6SM VCSH BKN060=



000
FTUS41 KPBZ 051134
TAFBVI
TAF
KBVI 051134Z 0512/0612 VRB03KT P6SM BKN250
     FM061000 13005KT P6SM VCSH BKN060
      AMD NOT SKED=



000
FTUS41 KPBZ 051056 AAA
TAFLBE
TAF AMD
KLBE 051056Z 0511/0606 00000KT 3SM BR BKN250
     FM051300 VRB05KT P6SM BKN250
      AMD NOT SKED=



000
FTUS41 KPBZ 051029 AAD
TAFMGW
TAF AMD
KMGW 051029Z 0510/0606 00000KT 2SM BR BKN250
      TEMPO 0510/0512 1SM BR
     FM051300 VRB03KT P6SM BKN250
     FM060000 12003KT P6SM BKN050=



000
FTUS41 KPBZ 051016 AAC
TAFMGW
TAF AMD
KMGW 051016Z 0510/0606 00000KT 3SM BR BKN250
      TEMPO 0510/0512 2SM BR
     FM051300 VRB03KT P6SM BKN250
     FM060000 12003KT P6SM BKN050=



000
FTUS41 KPBZ 051016 AAC
TAFMGW
TAF AMD
KMGW 051016Z 0510/0606 00000KT 3SM BR BKN250
      TEMPO 0510/0512 2SM BR
     FM051300 VRB03KT P6SM BKN250
     FM060000 12003KT P6SM BKN050=



000
FTUS41 KPBZ 050959 AAB
TAFMGW
TAF AMD
KMGW 050959Z 0510/0606 00000KT 3SM BR BKN250
     FM051300 VRB03KT P6SM BKN250
     FM060000 12003KT P6SM BKN050=



000
FTUS41 KPBZ 050902 AAB
TAFDUJ
TAF AMD
KDUJ 050902Z 0509/0606 VRB03KT P6SM BKN250=



000
FTUS41 KPBZ 050900 AAA
TAFHLG
TAF AMD
KHLG 050900Z 0509/0606 VRB03KT P6SM BKN250=



000
FTUS41 KPBZ 050858 AAB
TAFZZV
TAF AMD
KZZV 050858Z 0509/0606 00000KT 3SM BR BKN250
     FM051300 VRB03KT P6SM BKN250=



000
FTUS41 KPBZ 050855 AAA
TAFPIT
TAF AMD
KPIT 050855Z 0509/0612 VRB03KT P6SM BKN250
      TEMPO 0510/0512 5SM BR=



000
FTUS41 KPBZ 050828 AAA
TAFMGW
TAF AMD
KMGW 050828Z 0508/0606 00000KT 2SM BR BKN250
      TEMPO 0508/0511 1SM BR
     FM051300 VRB03KT P6SM BKN250
     FM060000 12003KT P6SM BKN050=



000
FTUS41 KPBZ 050800 AAA
TAFDUJ
TAF AMD
KDUJ 050800Z 0508/0606 VRB03KT P6SM BKN250
     FM050900 00000KT 3SM BR BKN250
      TEMPO 0510/0512 2SM BR
     FM051300 VRB03KT P6SM BKN250=



000
FTUS41 KPBZ 050725 AAA
TAFZZV
TAF AMD
KZZV 050725Z 0507/0606 00000KT 3SM BR BKN250
      TEMPO 0509/0512 2SM BR
     FM051300 VRB03KT P6SM BKN250=



000
FTUS41 KPBZ 050725 AAA
TAFZZV
TAF AMD
KZZV 050725Z 0507/0606 00000KT 3SM BR BKN250
      TEMPO 0509/0512 2SM BR
     FM051300 VRB03KT P6SM BKN250=



000
FTUS41 KPBZ 050520
TAFDUJ
TAF
KDUJ 050520Z 0506/0606 VRB03KT P6SM SKC
     FM050800 00000KT 3SM BR SKC
      TEMPO 0510/0512 2SM BR
     FM051300 VRB03KT P6SM SCT250=



000
FTUS41 KPBZ 050520
TAFAGC
TAF
KAGC 050520Z 0506/0606 VRB03KT P6SM BKN250
      TEMPO 0510/0512 5SM BR=



000
FTUS41 KPBZ 050520
TAFPIT
TAF
KPIT 050520Z 0506/0612 VRB03KT P6SM BKN250
      TEMPO 0510/0512 5SM BR=



000
FTUS41 KPBZ 050520
TAFBVI
TAF
KBVI 050520Z 0506/0606 VRB03KT P6SM BKN250
      AMD NOT SKED=



000
FTUS41 KPBZ 050520
TAFZZV
TAF
KZZV 050520Z 0506/0606 00000KT 2SM BR BKN250
      TEMPO 0509/0512 1SM BR
     FM051300 VRB03KT P6SM BKN250=



000
FTUS41 KPBZ 050520
TAFDUJ
TAF
KDUJ 050520Z 0506/0606 VRB03KT P6SM SKC
     FM050800 00000KT 3SM BR SKC
      TEMPO 0510/0512 2SM BR
     FM051300 VRB03KT P6SM SCT250=



000
FTUS41 KPBZ 050520
TAFBVI
TAF
KBVI 050520Z 0506/0606 VRB03KT P6SM BKN250
      AMD NOT SKED=



000
FTUS41 KPBZ 050520
TAFAGC
TAF
KAGC 050520Z 0506/0606 VRB03KT P6SM BKN250
      TEMPO 0510/0512 5SM BR=



000
FTUS41 KPBZ 050520
TAFPIT
TAF
KPIT 050520Z 0506/0612 VRB03KT P6SM BKN250
      TEMPO 0510/0512 5SM BR=



000
FTUS41 KPBZ 050520
TAFMGW
TAF
KMGW 050520Z 0506/0606 00000KT 3SM BR BKN250
     FM050800 00000KT 2SM BR BKN250
     FM051300 VRB03KT P6SM BKN250
     FM060000 12003KT P6SM BKN050=



000
FTUS41 KPBZ 050520
TAFHLG
TAF
KHLG 050520Z 0506/0606 VRB03KT P6SM BKN250
      TEMPO 0509/0513 3SM BR=



000
FTUS41 KPBZ 050520
TAFLBE
TAF
KLBE 050520Z 0506/0606 VRB03KT P6SM SCT250
     FM050800 00000KT 3SM BR BKN250
      TEMPO 0510/0512 2SM BR
     FM051300 VRB05KT P6SM BKN250
      AMD NOT SKED=



000
FTUS41 KPBZ 050520
TAFHLG
TAF
KHLG 050520Z 0506/0606 VRB03KT P6SM BKN250
      TEMPO 0509/0513 3SM BR=



000
FTUS41 KPBZ 050520
TAFMGW
TAF
KMGW 050520Z 0506/0606 00000KT 3SM BR BKN250
     FM050800 00000KT 2SM BR BKN250
     FM051300 VRB03KT P6SM BKN250
     FM060000 12003KT P6SM BKN050=



000
FTUS41 KPBZ 050520
TAFZZV
TAF
KZZV 050520Z 0506/0606 00000KT 2SM BR BKN250
      TEMPO 0509/0512 1SM BR
     FM051300 VRB03KT P6SM BKN250=



000
FTUS41 KPBZ 050520
TAFLBE
TAF
KLBE 050520Z 0506/0606 VRB03KT P6SM SCT250
     FM050800 00000KT 3SM BR BKN250
      TEMPO 0510/0512 2SM BR
     FM051300 VRB05KT P6SM BKN250
      AMD NOT SKED=



000
FTUS41 KPBZ 050414 AAA
TAFMGW
TAF AMD
KMGW 050414Z 0504/0524 00000KT 4SM BR SCT250
     FM050900 00000KT 2SM BR SCT250
     FM051300 VRB03KT P6SM BKN250=



000
FTUS41 KPBZ 050414 AAA
TAFMGW
TAF AMD
KMGW 050414Z 0504/0524 00000KT 4SM BR SCT250
     FM050900 00000KT 2SM BR SCT250
     FM051300 VRB03KT P6SM BKN250=



000
FTUS41 KPBZ 050320 AAA
TAFZZV
TAF AMD
KZZV 050320Z 0503/0524 00000KT 2SM BR SKC
     FM050900 00000KT 1SM BR SKC
     FM051300 06004KT P6SM SCT250=



000
FTUS41 KPBZ 050254 AAA
TAFPIT
TAF AMD
KPIT 050254Z 0503/0606 03003KT P6SM SKC
     FM050900 00000KT 3SM BR SKC
     FM051300 07005KT P6SM SCT250=



000
FTUS41 KPBZ 042331
TAFMGW
TAF
KMGW 042331Z 0500/0524 32008KT P6SM SKC
     FM050700 00000KT 4SM BR SKC
     FM050900 00000KT 2SM BR SCT250
     FM051300 VRB03KT P6SM BKN250=



000
FTUS41 KPBZ 042331
TAFAGC
TAF
KAGC 042331Z 0500/0524 32008KT P6SM SKC
     FM050900 00000KT 2SM BR SKC
     FM051300 08005KT P6SM SCT250=



000
FTUS41 KPBZ 042331
TAFLBE
TAF
KLBE 042331Z 0500/0524 21003KT P6SM SKC
     FM050800 00000KT 2SM BR SKC
     FM051000 00000KT 3/4SM BR SKC
     FM051300 VRB03KT 3SM BR SKC
     FM051400 06004KT P6SM BKN250=



000
FTUS41 KPBZ 042331
TAFHLG
TAF
KHLG 042331Z 0500/0524 31003KT P6SM SKC
     FM050800 00000KT 3SM BR SKC
     FM051000 00000KT 1SM BR SKC
     FM051300 07005KT P6SM SCT250=



000
FTUS41 KPBZ 042331
TAFZZV
TAF
KZZV 042331Z 0500/0524 33006KT P6SM SKC
     FM050800 00000KT 3SM BR SKC
     FM051000 00000KT 1SM BR SKC
     FM051200 06004KT P6SM SCT250=



000
FTUS41 KPBZ 042331
TAFBVI
TAF
KBVI 042331Z 0500/0524 32008KT P6SM SKC
     FM050800 00000KT 2SM BR SKC
     FM051300 07005KT P6SM BKN250
      AMD NOT SKED=



000
FTUS41 KPBZ 042331
TAFPIT
TAF
KPIT 042331Z 0500/0606 31003KT P6SM SKC
     FM050900 00000KT 3SM BR SKC
     FM051300 07005KT P6SM SCT250=



000
FTUS41 KPBZ 042331
TAFDUJ
TAF
KDUJ 042331Z 0500/0524 34008KT P6SM SKC
     FM050600 VRB03KT 3SM BR SKC
     FM050800 00000KT 2SM BR SKC
     FM051000 00000KT 3/4SM BR SKC
     FM051400 06005KT P6SM SCT250=



000
FTUS41 KPBZ 042331
TAFBVI
TAF
KBVI 042331Z 0500/0524 32008KT P6SM SKC
     FM050800 00000KT 2SM BR SKC
     FM051300 07005KT P6SM BKN250
      AMD NOT SKED=



000
FTUS41 KPBZ 042331
TAFMGW
TAF
KMGW 042331Z 0500/0524 32008KT P6SM SKC
     FM050700 00000KT 4SM BR SKC
     FM050900 00000KT 2SM BR SCT250
     FM051300 VRB03KT P6SM BKN250=



000
FTUS41 KPBZ 042331
TAFZZV
TAF
KZZV 042331Z 0500/0524 33006KT P6SM SKC
     FM050800 00000KT 3SM BR SKC
     FM051000 00000KT 1SM BR SKC
     FM051200 06004KT P6SM SCT250=



000
FTUS41 KPBZ 042331
TAFHLG
TAF
KHLG 042331Z 0500/0524 31003KT P6SM SKC
     FM050800 00000KT 3SM BR SKC
     FM051000 00000KT 1SM BR SKC
     FM051300 07005KT P6SM SCT250=



000
FTUS41 KPBZ 042331
TAFLBE
TAF
KLBE 042331Z 0500/0524 21003KT P6SM SKC
     FM050800 00000KT 2SM BR SKC
     FM051000 00000KT 3/4SM BR SKC
     FM051300 VRB03KT 3SM BR SKC
     FM051400 06004KT P6SM BKN250=



000
FTUS41 KPBZ 042331
TAFPIT
TAF
KPIT 042331Z 0500/0606 31003KT P6SM SKC
     FM050900 00000KT 3SM BR SKC
     FM051300 07005KT P6SM SCT250=



000
FTUS41 KPBZ 042331
TAFDUJ
TAF
KDUJ 042331Z 0500/0524 34008KT P6SM SKC
     FM050600 VRB03KT 3SM BR SKC
     FM050800 00000KT 2SM BR SKC
     FM051000 00000KT 3/4SM BR SKC
     FM051400 06005KT P6SM SCT250=



000
FTUS41 KPBZ 042331
TAFAGC
TAF
KAGC 042331Z 0500/0524 32008KT P6SM SKC
     FM050900 00000KT 2SM BR SKC
     FM051300 08005KT P6SM SCT250=



000
FTUS41 KPBZ 042106 AAA
TAFPIT
TAF AMD
KPIT 042106Z 0421/0524 34008KT P6SM SCT040
     FM051000 00000KT 2SM BR SKC
     FM051300 07005KT P6SM BKN250=



000
FTUS41 KPBZ 042106 AAA
TAFPIT
TAF AMD
KPIT 042106Z 0421/0524 34008KT P6SM SCT040
     FM051000 00000KT 2SM BR SKC
     FM051300 07005KT P6SM BKN250=



000
FTUS41 KPBZ 041730
TAFZZV
TAF
KZZV 041730Z 0418/0518 33006KT P6SM SCT040
     FM050800 00000KT 3SM BR SKC
     FM051200 06004KT P6SM BKN250=



000
FTUS41 KPBZ 041730
TAFLBE
TAF
KLBE 041730Z 0418/0518 32008KT P6SM BKN035
     FM050800 00000KT 2SM BR SKC
      TEMPO 0509/0512 3/4SM BR
     FM051400 06004KT P6SM BKN250=



000
FTUS41 KPBZ 041730
TAFBVI
TAF
KBVI 041730Z 0418/0518 32008KT P6SM SCT040
     FM050800 00000KT 2SM BR SKC
     FM051300 07005KT P6SM BKN250
      AMD NOT SKED=



000
FTUS41 KPBZ 041730
TAFPIT
TAF
KPIT 041730Z 0418/0524 34008KT P6SM SCT040
     FM050800 00000KT 2SM BR SKC
     FM051300 07005KT P6SM BKN250=



000
FTUS41 KPBZ 041730
TAFHLG
TAF
KHLG 041730Z 0418/0518 33008KT P6SM SCT040
     FM050800 00000KT 3SM BR SKC
     FM051300 07005KT P6SM BKN250=



000
FTUS41 KPBZ 041730
TAFMGW
TAF
KMGW 041730Z 0418/0518 32008KT P6SM SCT040
     FM050800 00000KT 2SM BR SKC
     FM051300 VRB03KT P6SM BKN250=



000
FTUS41 KPBZ 041730
TAFZZV
TAF
KZZV 041730Z 0418/0518 33006KT P6SM SCT040
     FM050800 00000KT 3SM BR SKC
     FM051200 06004KT P6SM BKN250=



000
FTUS41 KPBZ 041730
TAFLBE
TAF
KLBE 041730Z 0418/0518 32008KT P6SM BKN035
     FM050800 00000KT 2SM BR SKC
      TEMPO 0509/0512 3/4SM BR
     FM051400 06004KT P6SM BKN250=



000
FTUS41 KPBZ 041730
TAFBVI
TAF
KBVI 041730Z 0418/0518 32008KT P6SM SCT040
     FM050800 00000KT 2SM BR SKC
     FM051300 07005KT P6SM BKN250
      AMD NOT SKED=



000
FTUS41 KPBZ 041730
TAFDUJ
TAF
KDUJ 041730Z 0418/0518 02007KT P6SM BKN025
     FM041900 34008KT P6SM SCT040
     FM050800 00000KT 2SM BR SKC
      TEMPO 0509/0512 3/4SM BR
     FM051400 06005KT P6SM SCT250=



000
FTUS41 KPBZ 041730
TAFAGC
TAF
KAGC 041730Z 0418/0518 33008KT P6SM SCT040
     FM050800 00000KT 2SM BR SKC
     FM051300 08005KT P6SM BKN250=



000
FTUS41 KPBZ 041730
TAFPIT
TAF
KPIT 041730Z 0418/0524 34008KT P6SM SCT040
     FM050800 00000KT 2SM BR SKC
     FM051300 07005KT P6SM BKN250=



000
FTUS41 KPBZ 041730
TAFDUJ
TAF
KDUJ 041730Z 0418/0518 02007KT P6SM BKN025
     FM041900 34008KT P6SM SCT040
     FM050800 00000KT 2SM BR SKC
      TEMPO 0509/0512 3/4SM BR
     FM051400 06005KT P6SM SCT250=



000
FTUS41 KPBZ 041730
TAFHLG
TAF
KHLG 041730Z 0418/0518 33008KT P6SM SCT040
     FM050800 00000KT 3SM BR SKC
     FM051300 07005KT P6SM BKN250=



000
FTUS41 KPBZ 041730
TAFMGW
TAF
KMGW 041730Z 0418/0518 32008KT P6SM SCT040
     FM050800 00000KT 2SM BR SKC
     FM051300 VRB03KT P6SM BKN250=



000
FTUS41 KPBZ 041730
TAFAGC
TAF
KAGC 041730Z 0418/0518 33008KT P6SM SCT040
     FM050800 00000KT 2SM BR SKC
     FM051300 08005KT P6SM BKN250=



    US Dept of Commerce
    National Oceanic and Atmospheric Administration
    National Weather Service
    1325 East West Highway
    Silver Spring, MD 20910
    Page Author: NWS Internet Services Team
Disclaimer
Information Quality
Credits
Glossary
Privacy Policy
Freedom of Information Act (FOIA)
About Us
Career Opportunities